Time;durP1;ratioP1;P1;durP2;ratioP2;P2;SDS_P1;SDS_P2;PMS_P1;PMS_P2;Temp;Humidity;BMP_temperature;BMP_pressure;BME280_temperature;BME280_humidity;BME280_pressure;Samples;Min_cycle;Max_cycle;Signal;HPM_P1;HPM_P2
2022/08/13 00:00:00;;;;;;;2.58;2.30;;;;;;;18.06;59.15;101581.00;1026225;28;20038;-73
2022/08/13 00:00:32;;;;;;;8.02;1.80;;;;;;;17.97;60.04;101587.06;1028033;28;20046;-73
2022/08/13 00:01:05;;;;;;;3.72;2.13;;;;;;;17.94;59.82;101583.00;1026570;28;20455;-73
2022/08/13 00:01:40;;;;;;;5.25;2.35;;;;;;;17.96;59.08;101585.44;1027279;28;20038;-73
2022/08/13 00:02:16;;;;;;;3.28;1.77;;;;;;;17.94;59.82;101577.59;1023017;29;20047;-75
2022/08/13 00:02:51;;;;;;;3.47;2.17;;;;;;;17.87;60.14;101582.34;1023113;29;20162;-75
2022/08/13 00:03:23;;;;;;;4.53;1.80;;;;;;;17.78;60.59;101581.94;1023729;29;20043;-73
2022/08/13 00:04:15;;;;;;;14.27;2.30;;;;;;;17.86;59.65;101586.09;1025620;28;20077;-73
2022/08/13 00:05:00;;;;;;;7.63;2.75;;;;;;;17.78;59.97;101578.41;1025795;28;20414;-73
2022/08/13 00:05:52;;;;;;;3.35;2.35;;;;;;;17.83;59.08;101575.81;1026302;28;20046;-73
2022/08/13 00:07:10;;;;;;;4.88;1.90;;;;;;;17.74;60.41;101578.09;1025135;28;20039;-73
2022/08/13 00:07:25;;;;;;;5.03;2.03;;;;;;;17.65;60.07;101578.72;1023432;28;20059;-73
2022/08/13 00:07:57;;;;;;;5.25;1.98;;;;;;;17.83;60.25;101582.03;1027523;28;20043;-73
2022/08/13 00:08:29;;;;;;;3.15;2.28;;;;;;;17.80;59.39;101578.97;1027838;28;20490;-73
2022/08/13 00:09:06;;;;;;;2.67;2.08;;;;;;;17.70;59.41;101576.13;1027473;28;20518;-73
2022/08/13 00:09:50;;;;;;;2.45;1.73;;;;;;;17.74;59.12;101582.66;1027637;28;20050;-74
2022/08/13 00:10:31;;;;;;;7.25;1.80;;;;;;;17.66;60.22;101580.34;1023072;29;20043;-74
2022/08/13 00:11:05;;;;;;;5.10;1.60;;;;;;;17.67;59.39;101582.00;1023440;29;20097;-73
2022/08/13 00:13:25;;;;;;;2.75;1.55;;;;;;;17.60;62.34;101585.66;1027806;28;20047;-73
2022/08/13 00:14:14;;;;;;;1.63;1.50;;;;;;;17.51;61.38;101586.31;1027270;28;20118;-74
2022/08/13 00:15:12;;;;;;;2.40;2.20;;;;;;;17.46;62.39;101586.22;1026597;28;20042;-73
2022/08/13 00:15:47;;;;;;;1.90;1.65;;;;;;;17.41;62.82;101584.25;1026428;28;20042;-75
2022/08/13 00:16:26;;;;;;;2.10;1.90;;;;;;;17.32;63.65;101590.28;1026823;28;20062;-74
2022/08/13 00:16:59;;;;;;;3.13;1.90;;;;;;;17.37;63.39;101585.81;1026837;28;20039;-73
2022/08/13 00:17:33;;;;;;;1.70;1.58;;;;;;;17.45;62.86;101584.59;1027472;28;20498;-73
2022/08/13 00:18:25;;;;;;;2.03;1.73;;;;;;;17.39;63.44;101591.78;1025727;28;20050;-73
2022/08/13 00:19:00;;;;;;;3.35;1.52;;;;;;;17.38;63.37;101586.63;1025577;28;20039;-74
2022/08/13 00:19:33;;;;;;;4.40;1.60;;;;;;;17.18;63.15;101587.06;1027649;28;20069;-74
2022/08/13 00:20:06;;;;;;;2.35;1.67;;;;;;;17.14;63.06;101584.06;1027603;28;20042;-74
2022/08/13 00:20:48;;;;;;;1.85;1.70;;;;;;;17.16;63.54;101591.88;1026514;28;20137;-73
2022/08/13 00:21:28;;;;;;;2.40;1.65;;;;;;;16.93;63.73;101582.84;1023297;28;20043;-73
2022/08/13 00:22:22;;;;;;;1.73;1.60;;;;;;;17.06;63.53;101578.25;1022938;28;20513;-74
2022/08/13 00:23:01;;;;;;;;;;;;;;;16.99;63.48;101589.97;1027390;28;20062;-74
2022/08/13 00:23:54;;;;;;;;;;;;;;;17.01;62.95;101589.75;1027038;28;19922;-74
2022/08/13 00:24:30;;;;;;;;;;;;;;;17.01;64.13;101586.22;1027223;28;20012;-74
2022/08/13 00:25:05;;;;;;;;;;;;;;;16.88;63.87;101590.81;1023812;29;19922;-73
2022/08/13 00:25:41;;;;;;;;;;;;;;;16.91;64.06;101584.97;1022298;29;20482;-73
2022/08/13 00:26:16;;;;;;;;;;;;;;;16.95;64.70;101583.41;1015897;29;19923;-74
2022/08/13 00:27:01;;;;;;;;;;;;;;;16.88;64.23;101577.38;1018534;29;19950;-74
2022/08/13 00:27:33;;;;;;;;;;;;;;;16.80;64.57;101580.47;1019724;29;20536;-74
2022/08/13 00:28:26;;;;;;;;;;;;;;;16.74;66.25;101589.50;1027288;28;20390;-74
2022/08/13 00:29:00;;;;;;;;;;;;;;;16.76;67.52;101603.53;1027859;28;20016;-74
2022/08/13 00:29:31;;;;;;;;;;;;;;;16.72;67.06;101596.16;1019665;29;20329;-74
2022/08/13 00:30:05;;;;;;;;;;;;;;;16.70;66.01;101599.06;1019682;29;20310;-73
2022/08/13 00:30:41;;;;;;;;;;;;;;;16.69;65.30;101592.88;1019602;29;19930;-74
2022/08/13 00:31:17;;;;;;;;;;;;;;;16.80;65.36;101590.41;1021948;29;20399;-73
2022/08/13 00:31:53;;;;;;;;;;;;;;;16.74;65.60;101589.50;1024011;28;19929;-74
2022/08/13 00:32:32;;;;;;;;;;;;;;;16.62;66.23;101592.16;1023521;29;19931;-74
2022/08/13 00:33:11;;;;;;;;;;;;;;;16.71;65.85;101595.34;1026190;28;20069;-74
2022/08/13 00:33:45;;;;;;;;;;;;;;;16.71;66.13;101598.03;1028032;28;20317;-74
2022/08/13 00:34:19;;;;;;;;;;;;;;;16.69;67.12;101597.44;1026592;28;20279;-74
2022/08/13 00:34:59;;;;;;;;;;;;;;;16.51;67.13;101602.97;1025756;28;19929;-73
2022/08/13 00:35:32;;;;;;;;;;;;;;;16.54;67.33;101602.47;1023269;29;19934;-74
2022/08/13 00:36:12;;;;;;;;;;;;;;;16.59;67.17;101607.97;1023629;29;19974;-73
2022/08/13 00:36:44;;;;;;;;;;;;;;;16.50;67.76;101593.25;1023738;29;19929;-73
2022/08/13 00:37:18;;;;;;;;;;;;;;;16.58;66.87;101596.38;1024245;28;19923;-74
2022/08/13 00:37:56;;;;;;;;;;;;;;;16.52;66.92;101597.34;1028021;28;19921;-73
2022/08/13 00:38:28;;;;;;;;;;;;;;;16.53;67.23;101590.91;1028027;28;20294;-73
2022/08/13 00:39:08;;;;;;;;;;;;;;;16.55;66.74;101590.66;1026782;28;19930;-73
2022/08/13 00:39:39;;;;;;;;;;;;;;;16.61;67.46;101595.09;1028266;28;19922;-73
2022/08/13 00:40:31;;;;;;;;;;;;;;;16.63;66.24;101587.59;1028160;28;20386;-74
2022/08/13 00:41:03;;;;;;;;;;;;;;;16.64;65.91;101589.22;1028128;28;20041;-73
2022/08/13 00:41:39;;;;;;;;;;;;;;;16.68;65.74;101590.41;1027170;28;19929;-74
2022/08/13 00:42:30;;;;;;;;;;;;;;;16.74;65.34;101588.66;1026349;28;19922;-74
2022/08/13 00:43:02;;;;;;;;;;;;;;;16.75;65.58;101587.63;1027636;28;20294;-73
2022/08/13 00:43:35;;;;;;;;;;;;;;;16.80;65.58;101591.22;1023811;29;19978;-74
2022/08/13 00:44:08;;;;;;;;;;;;;;;16.87;65.67;101588.38;1022883;29;20329;-74
2022/08/13 00:44:41;;;;;;;;;;;;;;;16.90;64.97;101587.91;1020012;29;20484;-75
2022/08/13 00:45:12;;;;;;;;;;;;;;;16.93;64.80;101590.09;1019598;29;19930;-74
2022/08/13 00:45:45;;;;;;;;;;;;;;;16.99;64.33;101586.47;1022697;29;21071;-74
2022/08/13 00:46:20;;;;;;;;;;;;;;;16.90;64.36;101577.94;1025096;28;19930;-73
2022/08/13 00:48:41;;;;;;;;;;;;;;;16.94;64.29;101589.88;1027868;28;19989;-74
2022/08/13 00:48:53;;;;;;;;;;;;;;;17.09;63.68;101581.28;1015415;29;20399;-74
2022/08/13 00:49:26;;;;;;;;;;;;;;;17.11;63.53;101581.84;1015783;29;19938;-74
2022/08/13 00:50:02;;;;;;;;;;;;;;;17.11;63.33;101589.91;1023755;28;19974;-74
2022/08/13 00:50:35;;;;;;;;;;;;;;;16.93;63.50;101590.09;1023905;29;19929;-74
2022/08/13 00:51:10;;;;;;;;;;;;;;;16.79;64.43;101586.06;1023566;28;19970;-74
2022/08/13 00:51:42;;;;;;;;;;;;;;;16.77;64.35;101589.00;1019382;29;20069;-74
2022/08/13 00:52:33;;;;;;;;;;;;;;;16.83;64.32;101588.03;1022187;29;19934;-74
2022/08/13 00:53:05;;;;;;;;;;;;;;;16.88;63.69;101585.44;1023880;29;19922;-74
2022/08/13 00:53:37;;;;;;;;;;;;;;;16.89;63.98;101586.25;1027313;28;19922;-74
2022/08/13 00:54:16;;;;;;;;;;;;;;;16.83;64.25;101593.44;1027480;28;19926;-73
2022/08/13 00:54:49;;;;;;;;;;;;;;;16.79;63.88;101580.69;1027898;28;19929;-74
2022/08/13 00:55:26;;;;;;;;;;;;;;;16.54;64.10;101591.72;1023127;29;20335;-74
2022/08/13 00:56:00;;;;;;;;;;;;;;;16.54;64.58;101583.66;1023487;29;19922;-74
2022/08/13 00:56:35;;;;;;;;;;;;;;;16.58;65.15;101591.00;1023871;29;19922;-74
2022/08/13 00:57:07;;;;;;;;;;;;;;;16.56;66.17;101593.13;1025508;28;19922;-74
2022/08/13 00:57:39;;;;;;;;;;;;;;;16.22;66.31;101594.81;1027216;28;19922;-73
2022/08/13 00:58:11;;;;;;;;;;;;;;;16.34;65.94;101587.53;1026417;28;20317;-73
2022/08/13 00:58:49;;;;;;;;;;;;;;;16.24;66.12;101587.31;1028032;28;20072;-73
2022/08/13 00:59:20;;;;;;;;;;;;;;;16.19;67.11;101589.91;1028183;28;20397;-75
2022/08/13 00:59:54;;;;;;;;;;;;;;;16.15;67.32;101596.78;1023248;28;19923;-74
2022/08/13 01:00:26;;;;;;;;;;;;;;;16.29;66.66;101592.81;1023388;29;19929;-73
2022/08/13 01:00:58;;;;;;;;;;;;;;;16.29;67.08;101592.81;1023653;29;19929;-73
2022/08/13 01:01:30;;;;;;;;;;;;;;;16.48;66.00;101590.00;1022992;28;19933;-74
2022/08/13 01:02:06;;;;;;;;;;;;;;;16.36;65.89;101590.81;1027974;28;19922;-73
2022/08/13 01:02:41;;;;;;;;;;;;;;;16.37;66.75;101595.13;1023688;29;19923;-74
2022/08/13 01:03:26;;;;;;;;;;;;;;;16.33;66.06;101593.16;1023664;29;19926;-73
2022/08/13 01:04:19;;;;;;;;;;;;;;;16.27;67.24;101586.03;1024025;29;19922;-73
2022/08/13 01:04:57;;;;;;;;;;;;;;;16.20;68.39;101594.22;1021646;29;20371;-74
2022/08/13 01:05:29;;;;;;;;;;;;;;;16.25;68.31;101602.41;1023733;29;19929;-74
2022/08/13 01:06:11;;;;;;;;;;;;;;;16.07;68.61;101599.84;1023850;29;20115;-74
2022/08/13 01:06:49;;;;;;;;;;;;;;;16.09;67.61;101595.03;1023573;28;20405;-73
2022/08/13 01:07:22;;;;;;;;;;;;;;;16.14;68.07;101599.72;1019554;29;19922;-74
2022/08/13 01:08:18;;;;;;;;;;;;;;;16.03;69.13;101598.66;1015827;29;20314;-73
2022/08/13 01:08:55;;;;;;;;;;;;;;;16.01;69.71;101596.22;1020080;29;19922;-74
2022/08/13 01:09:29;;;;;;;;;;;;;;;15.89;70.25;101597.28;1024271;28;20009;-74
2022/08/13 01:10:21;;;;;;;;;;;;;;;15.74;71.07;101601.22;1029470;28;19922;-74
2022/08/13 01:10:56;;;;;;;;;;;;;;;15.77;70.48;101599.94;1027708;28;19922;-74
2022/08/13 01:11:32;;;;;;;;;;;;;;;15.78;70.63;101601.56;1027680;28;20298;-74
2022/08/13 01:12:05;;;;;;;;;;;;;;;15.79;69.94;101605.06;1027301;28;19930;-74
2022/08/13 01:12:39;;;;;;;;;;;;;;;15.68;71.45;101598.66;1027771;28;19922;-73
2022/08/13 01:13:13;;;;;;;;;;;;;;;15.64;70.95;101603.66;1023560;29;19926;-73
2022/08/13 01:13:44;;;;;;;;;;;;;;;15.82;70.57;101599.22;1023649;29;20386;-74
2022/08/13 01:14:16;;;;;;;;;;;;;;;15.86;69.46;101600.41;1019629;29;19929;-74
2022/08/13 01:14:48;;;;;;;;;;;;;;;15.76;69.62;101604.50;1019766;29;19991;-74
2022/08/13 01:15:23;;;;;;;;;;;;;;;15.71;69.36;101596.31;1019897;29;19922;-74
2022/08/13 01:15:55;;;;;;;;;;;;;;;15.79;69.12;101594.31;1017125;29;19923;-74
2022/08/13 01:16:35;;;;;;;;;;;;;;;15.87;69.27;101596.66;1018909;29;19926;-74
2022/08/13 01:17:08;;;;;;;;;;;;;;;15.80;69.14;101591.41;1019594;29;19923;-74
2022/08/13 01:17:45;;;;;;;;;;;;;;;15.93;69.35;101598.44;1015120;29;19927;-73
2022/08/13 01:18:21;;;;;;;;;;;;;;;15.93;68.83;101593.88;1016805;29;19923;-74
2022/08/13 01:18:53;;;;;;;;;;;;;;;15.89;69.49;101591.91;1019299;29;19989;-73
2022/08/13 01:19:24;;;;;;;;;;;;;;;15.85;68.73;101596.09;1021538;29;19927;-73
2022/08/13 01:20:22;;;;;;;;;;;;;;;15.86;68.47;101592.34;1019202;29;19926;-73
2022/08/13 01:21:08;;;;;;;;;;;;;;;15.86;68.54;101586.97;1023622;29;19937;-73
2022/08/13 01:21:40;;;;;;;;;;;;;;;15.83;69.20;101593.63;1023936;28;19922;-73
2022/08/13 01:22:12;;;;;;;;;;;;;;;15.94;69.21;101592.00;1023749;29;20290;-74
2022/08/13 01:22:52;;;;;;;;;;;;;;;15.87;69.17;101593.97;1019918;29;19985;-73
2022/08/13 01:23:28;;;;;;;;;;;;;;;15.80;69.30;101599.47;1017696;29;19929;-73
2022/08/13 01:24:12;;;;;;;;;;;;;;;15.81;69.14;101593.03;1018097;29;19962;-73
2022/08/13 01:24:44;;;;;;;;;;;;;;;15.79;69.48;101587.09;1023684;29;19922;-74
2022/08/13 01:25:25;;;;;;;;;;;;;;;15.80;69.24;101593.28;1023688;29;19945;-74
2022/08/13 01:26:00;;;;;;;;;;;;;;;15.79;69.37;101588.97;1019839;29;20391;-73
2022/08/13 01:26:40;;;;;;;;;;;;;;;15.84;69.36;101595.25;1018832;29;20415;-73
2022/08/13 01:27:18;;;;;;;;;;;;;;;15.84;69.08;101586.38;1019522;29;19930;-74
2022/08/13 01:27:49;;;;;;;;;;;;;;;15.83;69.33;101592.81;1019485;29;19923;-74
2022/08/13 01:28:27;;;;;;;;;;;;;;;15.83;68.77;101593.63;1025222;28;20247;-74
2022/08/13 01:29:04;;;;;;;;;;;;;;;15.76;69.54;101588.38;1026994;28;20405;-73
2022/08/13 01:29:41;;;;;;;;;;;;;;;15.86;68.91;101584.28;1023083;29;20520;-73
2022/08/13 01:30:19;;;;;;;;;;;;;;;15.87;69.20;101586.72;1023323;29;20383;-74
2022/08/13 01:30:51;;;;;;;;;;;;;;;15.84;69.33;101589.88;1023411;29;19996;-73
2022/08/13 01:31:22;;;;;;;;;;;;;;;15.89;69.12;101587.34;1021995;29;19923;-73
2022/08/13 01:31:54;;;;;;;;;;;;;;;15.98;68.90;101585.13;1023691;29;19922;-73
2022/08/13 01:32:27;;;;;;;;;;;;;;;16.02;68.33;101584.41;1023507;29;20062;-74
2022/08/13 01:33:18;;;;;;;;;;;;;;;15.85;69.25;101590.72;1021721;29;19954;-73
2022/08/13 01:33:56;;;;;;;;;;;;;;;15.76;69.94;101585.69;1021603;29;19923;-73
2022/08/13 01:34:30;;;;;;;;;;;;;;;15.84;69.20;101599.81;1023833;29;19969;-74
2022/08/13 01:35:02;;;;;;;;;;;;;;;15.88;69.20;101593.75;1028134;28;19973;-74
2022/08/13 01:35:37;;;;;;;;;;;;;;;15.77;69.31;101591.88;1023364;29;19923;-73
2022/08/13 01:36:12;;;;;;;;;;;;;;;15.71;70.02;101588.25;1023628;29;19922;-74
2022/08/13 01:36:49;;;;;;;;;;;;;;;15.78;70.06;101601.56;1023494;29;19922;-74
2022/08/13 01:37:27;;;;;;;;;;;;;;;15.50;69.86;101591.44;1024526;28;20021;-74
2022/08/13 01:37:58;;;;;;;;;;;;;;;15.41;69.93;101592.84;1027635;28;20428;-74
2022/08/13 01:38:37;;;;;;;;;;;;;;;15.40;70.41;101583.16;1026105;28;20028;-74
2022/08/13 01:39:10;;;;;;;;;;;;;;;15.55;70.71;101590.75;1027743;28;19922;-73
2022/08/13 01:39:52;;;;;;;;;;;;;;;15.49;70.49;101597.88;1027217;28;19930;-74
2022/08/13 01:40:24;;;;;;;;;;;;;;;15.37;71.32;101599.72;1026119;28;20297;-74
2022/08/13 01:40:56;;;;;;;;;;;;;;;15.40;71.54;101599.25;1023335;29;19929;-73
2022/08/13 01:41:30;;;;;;;;;;;;;;;15.36;71.35;101598.91;1023345;29;20337;-74
2022/08/13 01:42:21;;;;;;;;;;;;;;;15.32;72.43;101608.44;1019457;29;19953;-73
2022/08/13 01:43:07;;;;;;;;;;;;;;;15.15;72.02;101602.91;1023354;29;19972;-73
2022/08/13 01:44:00;;;;;;;;;;;;;;;15.16;72.62;101603.72;1020017;29;19945;-74
2022/08/13 01:44:47;;;;;;;;;;;;;;;15.39;71.18;101597.63;1023494;29;20041;-73
2022/08/13 01:45:19;;;;;;;;;;;;;;;15.41;71.21;101595.53;1023678;29;20012;-74
2022/08/13 01:45:51;;;;;;;;;;;;;;;15.46;70.48;101595.66;1023682;29;19922;-73
2022/08/13 01:46:23;;;;;;;;;;;;;;;15.53;70.49;101590.16;1023485;29;19930;-73
2022/08/13 01:50:42;;;;;;;;;;;;;;;15.47;71.81;101599.97;1027208;28;19926;-73
2022/08/13 01:51:21;;;;;;;;;;;;;;;15.52;70.28;101589.34;1023391;29;19923;-74
2022/08/13 01:51:54;;;;;;;;;;;;;;;15.60;70.29;101589.03;1023313;29;19941;-73
2022/08/13 01:52:25;;;;;;;;;;;;;;;15.60;70.24;101591.72;1019699;29;19922;-74
2022/08/13 01:53:01;;;;;;;;;;;;;;;15.65;69.83;101589.19;1017238;29;19946;-74
2022/08/13 01:53:33;;;;;;;;;;;;;;;15.69;69.47;101590.34;1015954;29;19974;-73
2022/08/13 01:54:05;;;;;;;;;;;;;;;15.70;69.40;101591.19;1014573;29;20287;-73
2022/08/13 01:54:56;;;;;;;;;;;;;;;15.64;69.71;101592.09;1022922;29;19922;-74
2022/08/13 01:55:39;;;;;;;;;;;;;;;15.65;70.03;101591.06;1026285;28;19923;-73
2022/08/13 01:56:31;;;;;;;;;;;;;;;15.63;69.86;101595.84;1022918;29;19934;-74
2022/08/13 01:57:03;;;;;;;;;;;;;;;15.58;69.16;101591.13;1019504;29;19927;-73
2022/08/13 01:57:39;;;;;;;;;;;;;;;15.60;69.35;101588.22;1019948;29;19922;-74
2022/08/13 01:58:22;;;;;;;;;;;;;;;15.51;69.79;101589.59;1023289;29;19933;-74
2022/08/13 01:59:01;;;;;;;;;;;;;;;15.56;69.33;101589.69;1025225;28;20290;-73
2022/08/13 01:59:41;;;;;;;;;;;;;;;15.59;69.87;101591.97;1027236;28;19922;-74
2022/08/13 02:00:36;;;;;;;;;;;;;;;15.51;68.42;101587.72;1025717;28;19921;-73
2022/08/13 02:01:12;;;;;;;;;;;;;;;15.51;69.98;101590.41;1023343;29;19927;-74
2022/08/13 02:01:45;;;;;;;;;;;;;;;15.35;70.12;101593.75;1023796;29;20420;-74
2022/08/13 02:02:23;;;;;;;;;;;;;;;15.28;70.43;101593.84;1023649;29;19923;-74
2022/08/13 02:03:14;;;;;;;;;;;;;;;15.39;71.34;101592.25;1023383;29;20390;-74
2022/08/13 02:03:49;;;;;;;;;;;;;;;15.46;70.23;101588.41;1022726;29;20008;-73
2022/08/13 02:04:22;;;;;;;;;;;;;;;15.36;70.71;101590.03;1022900;29;20404;-73
2022/08/13 02:04:56;;;;;;;;;;;;;;;15.33;71.17;101593.97;1027196;28;20361;-74
2022/08/13 02:05:32;;;;;;;;;;;;;;;15.40;70.62;101588.53;1027163;28;21355;-74
2022/08/13 02:06:24;;;;;;;;;;;;;;;15.35;69.98;101591.09;1028041;28;20377;-74
2022/08/13 02:07:04;;;;;;;;;;;;;;;15.24;69.75;101589.97;1023794;29;19922;-74
2022/08/13 02:07:42;;;;;;;;;;;;;;;15.13;71.17;101594.28;1022024;29;20366;-74
2022/08/13 02:08:35;;;;;;;;;;;;;;;14.99;71.36;101590.13;1018825;29;20005;-74
2022/08/13 02:09:06;;;;;;;;;;;;;;;14.88;71.63;101592.75;1019113;29;19945;-74
2022/08/13 02:09:58;;;;;;;;;;;;;;;14.94;72.37;101594.53;1021221;29;20269;-73
2022/08/13 02:10:32;;;;;;;;;;;;;;;15.06;72.19;101600.75;1023650;29;19941;-73
2022/08/13 02:11:03;;;;;;;;;;;;;;;14.90;72.67;101593.34;1026997;28;19949;-74
2022/08/13 02:11:38;;;;;;;;;;;;;;;14.86;72.15;101593.00;1026622;28;20468;-73
2022/08/13 02:12:16;;;;;;;;;;;;;;;14.89;72.09;101591.72;1027774;28;19922;-73
2022/08/13 02:13:05;;;;;;;;;;;;;;;15.01;72.57;101588.03;1028499;28;19930;-73
2022/08/13 02:13:39;;;;;;;;;;;;;;;14.88;72.79;101596.25;1028606;28;19945;-74
2022/08/13 02:14:11;;;;;;;;;;;;;;;14.82;72.17;101586.44;1028059;28;19922;-74
2022/08/13 02:14:50;;;;;;;;;;;;;;;14.90;72.56;101596.84;1028800;28;19965;-73
2022/08/13 02:15:21;;;;;;;;;;;;;;;14.96;72.70;101589.75;1024178;29;19922;-74
2022/08/13 02:16:12;;;;;;;;;;;;;;;15.03;72.58;101588.59;1023828;29;20683;-74
2022/08/13 02:16:44;;;;;;;;;;;;;;;15.04;73.18;101595.63;1024527;29;19923;-73
2022/08/13 02:17:27;;;;;;;;;;;;;;;14.95;73.30;101596.16;1026426;28;19923;-74
2022/08/13 02:18:20;;;;;;;;;;;;;;;15.02;72.97;101597.72;1028787;28;20362;-73
2022/08/13 02:18:53;;;;;;;;;;;;;;;14.99;73.25;101587.44;1027646;28;19926;-74
2022/08/13 02:19:24;;;;;;;;;;;;;;;14.99;74.18;101594.66;1028474;28;20302;-73
2022/08/13 02:20:00;;;;;;;;;;;;;;;14.94;72.99;101589.97;1027961;28;19922;-74
2022/08/13 02:20:34;;;;;;;;;;;;;;;14.92;72.95;101592.06;1024201;29;19922;-74
2022/08/13 02:21:07;;;;;;;;;;;;;;;14.95;73.02;101588.13;1024420;29;20309;-73
2022/08/13 02:21:51;;;;;;;;;;;;;;;14.85;72.28;101591.34;1022494;29;19930;-74
2022/08/13 02:22:23;;;;;;;;;;;;;;;14.83;73.17;101588.06;1022560;29;19945;-74
2022/08/13 02:22:55;;;;;;;;;;;;;;;14.82;72.72;101592.63;1023988;29;20356;-74
2022/08/13 02:23:33;;;;;;;;;;;;;;;14.82;73.49;101591.81;1023275;29;19953;-74
2022/08/13 02:24:24;;;;;;;;;;;;;;;14.89;72.67;101597.91;1023258;29;19922;-74
2022/08/13 02:24:59;;;;;;;;;;;;;;;14.93;72.55;101592.91;1024430;29;19953;-74
2022/08/13 02:25:32;;;;;;;;;;;;;;;14.88;72.07;101596.25;1024244;29;19926;-73
2022/08/13 02:26:05;;;;;;;;;;;;;;;14.80;72.67;101588.53;1024458;29;19922;-73
2022/08/13 02:26:42;;;;;;;;;;;;;;;14.82;72.41;101591.81;1024559;29;20016;-73
2022/08/13 02:27:25;;;;;;;;;;;;;;;14.82;72.98;101597.16;1020493;29;19923;-74
2022/08/13 02:27:57;;;;;;;;;;;;;;;14.88;73.21;101595.44;1022099;29;19930;-74
2022/08/13 02:28:30;;;;;;;;;;;;;;;14.96;72.84;101593.25;1023472;29;19934;-74
2022/08/13 02:29:04;;;;;;;;;;;;;;;14.99;73.05;101598.16;1026453;28;19930;-74
2022/08/13 02:29:35;;;;;;;;;;;;;;;15.01;72.92;101596.06;1028165;28;19928;-74
2022/08/13 02:30:09;;;;;;;;;;;;;;;15.04;73.25;101595.63;1027408;28;19929;-73
2022/08/13 02:30:41;;;;;;;;;;;;;;;15.01;73.02;101597.94;1025805;28;20378;-73
2022/08/13 02:31:13;;;;;;;;;;;;;;;15.02;73.50;101602.25;1028189;28;19937;-73
2022/08/13 02:32:05;;;;;;;;;;;;;;;14.99;73.79;101595.47;1028330;28;20364;-74
2022/08/13 02:32:49;;;;;;;;;;;;;;;14.90;74.41;101596.84;1026435;28;19944;-73
2022/08/13 02:33:20;;;;;;;;;;;;;;;14.87;74.21;101594.63;1022433;29;19922;-73
2022/08/13 02:33:55;;;;;;;;;;;;;;;14.92;74.46;101597.44;1023683;29;19930;-73
2022/08/13 02:34:28;;;;;;;;;;;;;;;14.87;74.07;101600.00;1024212;29;19929;-74
2022/08/13 02:35:01;;;;;;;;;;;;;;;14.80;73.90;101600.09;1024690;28;19922;-74
2022/08/13 02:35:35;;;;;;;;;;;;;;;14.92;74.40;101604.66;1028511;28;19929;-74
2022/08/13 02:36:17;;;;;;;;;;;;;;;14.92;73.06;101602.81;1028078;28;19960;-73
2022/08/13 02:36:58;;;;;;;;;;;;;;;14.95;73.47;101596.97;1024153;29;19965;-74
2022/08/13 02:37:50;;;;;;;;;;;;;;;14.94;73.14;101600.72;1020658;29;19922;-73
2022/08/13 02:38:29;;;;;;;;;;;;;;;14.88;72.58;101596.25;1020718;29;19926;-73
2022/08/13 02:39:06;;;;;;;;;;;;;;;14.91;72.85;101601.16;1025084;28;19922;-74
2022/08/13 02:39:38;;;;;;;;;;;;;;;14.79;73.34;101603.81;1028444;28;20390;-74
2022/08/13 02:41:59;;;;;;;;;;;;;;;14.76;73.45;101593.50;1028436;28;20385;-74
2022/08/13 02:42:32;;;;;;;;;;;;;;;14.66;73.13;101601.28;1028505;28;19922;-74
2022/08/13 02:43:07;;;;;;;;;;;;;;;14.69;73.51;101603.50;1023911;29;20211;-73
2022/08/13 02:43:42;;;;;;;;;;;;;;;14.71;73.41;101598.72;1024460;29;19922;-73
2022/08/13 02:44:29;;;;;;;;;;;;;;;14.78;73.68;101595.97;1023788;29;19930;-74
2022/08/13 02:45:07;;;;;;;;;;;;;;;14.63;73.47;101598.22;1027701;28;19929;-73
2022/08/13 02:45:45;;;;;;;;;;;;;;;14.47;73.68;101600.44;1019685;29;19930;-74
2022/08/13 02:46:17;;;;;;;;;;;;;;;14.36;73.60;101600.34;1020297;29;19923;-74
2022/08/13 02:46:51;;;;;;;;;;;;;;;14.36;74.27;101600.34;1016165;29;20391;-73
2022/08/13 02:47:23;;;;;;;;;;;;;;;14.40;75.06;101604.22;1018217;29;19930;-74
2022/08/13 02:48:17;;;;;;;;;;;;;;;14.38;75.29;101595.59;1022035;29;19930;-74
2022/08/13 02:48:52;;;;;;;;;;;;;;;14.29;75.20;101595.06;1028372;28;19921;-74
2022/08/13 02:49:24;;;;;;;;;;;;;;;14.27;75.54;101599.81;1028195;28;19922;-74
2022/08/13 02:50:02;;;;;;;;;;;;;;;14.28;76.38;101604.16;1028474;28;19929;-74
2022/08/13 02:50:42;;;;;;;;;;;;;;;14.24;76.83;101594.88;1028573;28;20012;-74
2022/08/13 02:51:16;;;;;;;;;;;;;;;14.12;76.65;101596.66;1028279;28;19989;-74
2022/08/13 02:51:47;;;;;;;;;;;;;;;14.07;77.10;101593.84;1028404;28;19980;-73
2022/08/13 02:52:39;;;;;;;;;;;;;;;14.03;76.83;101603.34;1029936;28;19929;-74
2022/08/13 02:53:29;;;;;;;;;;;;;;;13.97;77.33;101596.19;1023147;29;19937;-74
2022/08/13 02:54:02;;;;;;;;;;;;;;;14.02;77.54;101601.72;1019622;29;19926;-73
2022/08/13 02:54:33;;;;;;;;;;;;;;;14.06;77.15;101597.56;1020187;29;19923;-74
2022/08/13 02:55:07;;;;;;;;;;;;;;;13.99;76.41;101602.16;1020891;29;20017;-73
2022/08/13 02:55:38;;;;;;;;;;;;;;;13.99;77.71;101602.16;1024948;28;19945;-74
2022/08/13 02:56:12;;;;;;;;;;;;;;;13.96;77.85;101598.03;1024441;29;19973;-73
2022/08/13 02:56:47;;;;;;;;;;;;;;;13.80;78.10;101604.78;1024065;29;19930;-74
2022/08/13 02:57:21;;;;;;;;;;;;;;;13.79;78.88;101602.31;1024150;29;19923;-74
2022/08/13 02:57:53;;;;;;;;;;;;;;;13.85;78.45;101606.81;1024656;28;20021;-74
2022/08/13 02:58:26;;;;;;;;;;;;;;;13.90;78.00;101599.75;1024104;29;19922;-73
2022/08/13 02:58:57;;;;;;;;;;;;;;;13.93;78.46;101604.66;1024314;29;19928;-74
2022/08/13 02:59:29;;;;;;;;;;;;;;;13.96;78.79;101608.75;1023927;28;19923;-74
2022/08/13 03:00:20;;;;;;;;;;;;;;;14.00;78.11;101603.81;1026638;28;19922;-74
2022/08/13 03:01:02;;;;;;;;;;;;;;;14.01;78.79;101605.44;1023819;29;19926;-74
2022/08/13 03:01:35;;;;;;;;;;;;;;;14.03;78.31;101608.72;1021640;29;19929;-74
2022/08/13 03:02:25;;;;;;;;;;;;;;;14.01;77.71;101606.25;1024424;28;19989;-73
2022/08/13 03:02:57;;;;;;;;;;;;;;;14.10;77.92;101604.09;1024242;29;19926;-74
2022/08/13 03:03:32;;;;;;;;;;;;;;;14.29;77.68;101594.25;1015771;29;19986;-73
2022/08/13 03:04:10;;;;;;;;;;;;;;;14.30;76.37;101591.34;1015985;29;19930;-73
2022/08/13 03:04:44;;;;;;;;;;;;;;;14.28;76.18;101595.28;1017730;29;20342;-74
2022/08/13 03:05:17;;;;;;;;;;;;;;;14.25;76.77;101596.56;1018714;29;19923;-73
2022/08/13 03:05:49;;;;;;;;;;;;;;;14.34;77.04;101600.56;1021230;29;19945;-73
2022/08/13 03:06:30;;;;;;;;;;;;;;;14.36;76.11;101603.84;1022078;29;19922;-74
2022/08/13 03:07:03;;;;;;;;;;;;;;;14.43;75.57;101593.91;1022065;29;19963;-74
2022/08/13 03:07:40;;;;;;;;;;;;;;;14.44;75.19;101587.50;1020239;29;19931;-73
2022/08/13 03:08:27;;;;;;;;;;;;;;;14.43;74.90;101593.91;1022557;29;19923;-73
2022/08/13 03:09:12;;;;;;;;;;;;;;;14.42;74.82;101597.59;1025006;28;20298;-73
2022/08/13 03:09:46;;;;;;;;;;;;;;;14.50;74.93;101600.00;1027321;28;19922;-73
2022/08/13 03:10:22;;;;;;;;;;;;;;;14.52;74.77;101597.94;1022920;29;19945;-73
2022/08/13 03:11:10;;;;;;;;;;;;;;;14.58;74.58;101600.75;1024042;29;19922;-73
2022/08/13 03:11:44;;;;;;;;;;;;;;;14.55;74.77;101603.91;1024251;29;19962;-73
2022/08/13 03:12:16;;;;;;;;;;;;;;;14.53;74.87;101602.25;1026962;28;19922;-73
2022/08/13 03:12:49;;;;;;;;;;;;;;;14.53;75.03;101596.91;1024054;29;19931;-73
2022/08/13 03:13:24;;;;;;;;;;;;;;;14.55;75.46;101601.22;1024333;29;20366;-74
2022/08/13 03:13:57;;;;;;;;;;;;;;;14.53;75.36;101599.56;1021517;29;19922;-73
2022/08/13 03:14:30;;;;;;;;;;;;;;;14.53;75.35;101594.22;1021045;29;19922;-74
2022/08/13 03:15:02;;;;;;;;;;;;;;;14.49;75.62;101597.53;1019904;29;19922;-73
2022/08/13 03:15:34;;;;;;;;;;;;;;;14.48;75.61;101602.09;1020295;29;20046;-73
2022/08/13 03:16:25;;;;;;;;;;;;;;;14.44;74.90;101595.53;1021418;29;19924;-73
2022/08/13 03:16:58;;;;;;;;;;;;;;;14.44;74.92;101600.06;1027590;28;19929;-73
2022/08/13 03:17:29;;;;;;;;;;;;;;;14.40;75.25;101599.66;1028192;28;20362;-74
2022/08/13 03:18:01;;;;;;;;;;;;;;;14.40;75.01;101602.34;1028608;28;19922;-73